Time;durP1;ratioP1;P1;durP2;ratioP2;P2;SDS_P1;SDS_P2;PMS_P1;PMS_P2;Temp;Humidity;BMP_temperature;BMP_pressure;BME280_temperature;BME280_humidity;BME280_pressure;Samples;Min_cycle;Max_cycle;Signal;HPM_P1;HPM_P2
2023/08/05 00:01:11;;;;;;;8.03;5.30;;;16.50;99.90;;;;;;5120646;28;20658;-47
2023/08/05 00:03:42;;;;;;;6.70;4.20;;;16.50;99.90;;;;;;5130926;28;20293;-47
2023/08/05 00:06:12;;;;;;;4.80;3.80;;;16.50;99.90;;;;;;5140965;28;20214;-47
2023/08/05 00:08:43;;;;;;;4.83;3.63;;;16.50;99.90;;;;;;5142942;28;20207;-47
2023/08/05 00:11:14;;;;;;;4.80;4.23;;;16.50;99.90;;;;;;5137048;28;20184;-48
2023/08/05 00:13:45;;;;;;;6.53;3.93;;;16.40;99.90;;;;;;5142784;28;20835;-46
2023/08/05 00:16:15;;;;;;;9.53;4.37;;;16.30;99.90;;;;;;5137575;28;20186;-48
2023/08/05 00:18:46;;;;;;;3.03;2.83;;;16.30;99.90;;;;;;5121075;28;20240;-48
2023/08/05 00:21:18;;;;;;;5.00;4.17;;;16.30;99.90;;;;;;5137079;28;20193;-47
2023/08/05 00:23:48;;;;;;;4.07;3.43;;;16.30;99.90;;;;;;5106745;28;20201;-47
2023/08/05 00:26:19;;;;;;;4.57;3.67;;;16.30;99.90;;;;;;5139569;28;20481;-49
2023/08/05 00:28:50;;;;;;;6.13;3.53;;;16.20;99.90;;;;;;5125678;28;20216;-52
2023/08/05 00:31:20;;;;;;;8.00;4.20;;;16.20;99.90;;;;;;5111067;28;20269;-48
2023/08/05 00:33:51;;;;;;;4.07;3.67;;;16.20;99.90;;;;;;5129818;28;20654;-48
2023/08/05 00:36:21;;;;;;;4.63;3.70;;;16.20;99.90;;;;;;5141482;28;20237;-46
2023/08/05 00:38:52;;;;;;;5.87;3.10;;;16.20;99.90;;;;;;5123044;28;20209;-48
2023/08/05 00:41:23;;;;;;;10.63;4.40;;;16.20;99.90;;;;;;5142817;28;20361;-47
2023/08/05 00:43:53;;;;;;;3.23;3.03;;;16.10;99.90;;;;;;5144744;28;20244;-47
2023/08/05 00:46:24;;;;;;;4.40;3.67;;;16.10;99.90;;;;;;5147633;28;21682;-47
2023/08/05 00:48:55;;;;;;;4.67;2.83;;;16.10;99.90;;;;;;5127359;28;20198;-48
2023/08/05 00:51:26;;;;;;;3.77;3.47;;;16.10;99.90;;;;;;5149739;28;20186;-48
2023/08/05 00:53:57;;;;;;;6.83;3.17;;;16.00;99.90;;;;;;5130742;28;20184;-46
2023/08/05 00:56:28;;;;;;;4.17;3.80;;;16.00;99.90;;;;;;5133186;28;20434;-46
2023/08/05 00:58:59;;;;;;;3.90;3.67;;;16.00;99.90;;;;;;5132758;28;20513;-47
2023/08/05 01:01:29;;;;;;;4.63;3.33;;;15.90;99.90;;;;;;5149542;28;20546;-47
2023/08/05 01:04:00;;;;;;;25.53;3.63;;;15.90;99.90;;;;;;5131975;28;20506;-46
2023/08/05 01:06:32;;;;;;;4.77;3.23;;;15.90;99.90;;;;;;5112844;28;20305;-45
2023/08/05 01:09:03;;;;;;;8.73;3.73;;;16.00;99.90;;;;;;5144077;28;20205;-47
2023/08/05 01:11:35;;;;;;;5.23;3.60;;;16.00;99.90;;;;;;5128301;28;20509;-48
2023/08/05 01:14:06;;;;;;;4.57;2.70;;;15.90;99.90;;;;;;5124656;28;20201;-46
2023/08/05 01:16:36;;;;;;;4.17;3.50;;;15.90;99.90;;;;;;5147617;28;20436;-47
2023/08/05 01:19:23;;;;;;;6.27;3.60;;;15.90;99.90;;;;;;5143804;28;20229;-47
2023/08/05 01:22:19;;;;;;;4.60;3.90;;;15.90;99.90;;;;;;5128189;28;20288;-47
2023/08/05 01:25:05;;;;;;;4.63;4.00;;;15.80;99.90;;;;;;5145879;28;20429;-47
2023/08/05 01:27:37;;;;;;;3.93;3.33;;;15.80;99.90;;;;;;5136519;28;20437;-48
2023/08/05 01:30:08;;;;;;;5.97;3.40;;;15.80;99.90;;;;;;5120340;28;20488;-49
2023/08/05 01:32:40;;;;;;;4.57;3.27;;;15.80;99.90;;;;;;5142041;28;20769;-45
2023/08/05 01:35:11;;;;;;;3.50;3.20;;;15.80;99.90;;;;;;5114482;28;20789;-47
2023/08/05 01:37:41;;;;;;;5.57;3.60;;;15.80;99.90;;;;;;5122330;28;20455;-46
2023/08/05 01:40:12;;;;;;;3.10;2.90;;;15.80;99.90;;;;;;5146415;28;20244;-46
2023/08/05 01:42:43;;;;;;;5.23;3.40;;;15.70;99.90;;;;;;5149530;28;20201;-46
2023/08/05 01:45:13;;;;;;;3.90;3.60;;;15.70;99.90;;;;;;5134146;28;20464;-47
2023/08/05 01:47:44;;;;;;;6.43;3.23;;;15.70;99.90;;;;;;5126954;28;20181;-46
2023/08/05 01:50:15;;;;;;;4.40;2.50;;;15.70;99.90;;;;;;5140785;28;20197;-48
2023/08/05 01:52:45;;;;;;;4.73;3.20;;;15.70;99.90;;;;;;5133551;28;20232;-49
2023/08/05 01:55:16;;;;;;;3.70;3.23;;;15.60;99.90;;;;;;5155210;28;20218;-46
2023/08/05 01:57:47;;;;;;;5.13;2.73;;;15.60;99.90;;;;;;5121842;28;20193;-47
2023/08/05 02:00:20;;;;;;;7.10;3.30;;;15.50;99.90;;;;;;5139410;28;20217;-46
2023/08/05 02:02:51;;;;;;;4.30;3.30;;;15.60;99.90;;;;;;5112716;28;20557;-47
2023/08/05 02:05:22;;;;;;;5.13;3.47;;;15.50;99.90;;;;;;5126777;28;20474;-48
2023/08/05 02:07:53;;;;;;;3.37;3.07;;;15.40;99.90;;;;;;5123239;28;20732;-47
2023/08/05 02:10:23;;;;;;;3.07;2.70;;;15.50;99.90;;;;;;5123459;28;20229;-45
2023/08/05 02:12:54;;;;;;;4.17;3.00;;;15.50;99.90;;;;;;5132809;28;20692;-47
2023/08/05 02:15:26;;;;;;;14.60;3.23;;;15.50;99.90;;;;;;5136330;28;20299;-46
2023/08/05 02:17:57;;;;;;;7.07;4.00;;;15.50;99.90;;;;;;5124718;28;20228;-47
2023/08/05 02:20:28;;;;;;;4.13;3.63;;;15.60;99.90;;;;;;5124442;28;20844;-48
2023/08/05 02:22:58;;;;;;;4.27;3.30;;;15.50;99.90;;;;;;5137053;28;20190;-47
2023/08/05 02:25:29;;;;;;;4.40;3.40;;;15.40;99.90;;;;;;5124837;28;20248;-48
2023/08/05 02:27:59;;;;;;;5.47;3.90;;;15.40;99.90;;;;;;5129746;28;20186;-49
2023/08/05 02:30:30;;;;;;;3.30;2.97;;;15.40;99.90;;;;;;5144568;28;20205;-45
2023/08/05 02:33:01;;;;;;;4.50;3.83;;;15.30;99.90;;;;;;5153296;28;20498;-46
2023/08/05 02:35:31;;;;;;;3.47;3.23;;;15.20;99.90;;;;;;5143849;28;20190;-46
2023/08/05 02:38:05;;;;;;;4.60;3.40;;;15.20;99.90;;;;;;5124669;28;20277;-45
2023/08/05 02:40:35;;;;;;;3.50;3.30;;;15.20;99.90;;;;;;5123309;28;20208;-47
2023/08/05 02:43:06;;;;;;;5.43;3.50;;;15.10;99.90;;;;;;5138437;28;20801;-47
2023/08/05 02:45:37;;;;;;;6.27;3.77;;;15.20;99.90;;;;;;5132390;28;20204;-47
2023/08/05 02:48:07;;;;;;;5.30;3.70;;;15.10;99.90;;;;;;5141486;28;20658;-46
2023/08/05 02:50:38;;;;;;;3.13;2.90;;;15.10;99.90;;;;;;5142570;28;20260;-49
2023/08/05 02:53:08;;;;;;;3.73;3.40;;;15.10;99.90;;;;;;5114087;28;20654;-46
2023/08/05 02:55:39;;;;;;;3.07;2.87;;;15.10;99.90;;;;;;5150310;28;20261;-47
2023/08/05 02:58:10;;;;;;;3.00;2.70;;;15.00;99.90;;;;;;5124477;28;20300;-47
2023/08/05 03:00:41;;;;;;;3.83;2.73;;;15.00;99.90;;;;;;5134835;28;20272;-46
2023/08/05 03:03:11;;;;;;;2.93;2.73;;;15.00;99.90;;;;;;5127545;28;20208;-45
2023/08/05 03:05:42;;;;;;;2.90;2.70;;;14.90;99.90;;;;;;5147684;28;20205;-46
2023/08/05 03:08:13;;;;;;;3.83;3.60;;;14.80;99.90;;;;;;5127923;28;20712;-45
2023/08/05 03:10:43;;;;;;;4.90;3.70;;;14.80;99.90;;;;;;5130492;28;20456;-47
2023/08/05 03:13:14;;;;;;;2.90;2.70;;;14.80;99.90;;;;;;5129929;28;20225;-48
2023/08/05 03:15:45;;;;;;;3.60;3.10;;;14.70;99.90;;;;;;5124960;28;20225;-48
2023/08/05 03:18:15;;;;;;;8.23;3.10;;;14.70;99.90;;;;;;5151313;23;20319;-47
2023/08/05 03:20:47;;;;;;;3.30;3.00;;;14.70;99.90;;;;;;5148990;28;20297;-45
2023/08/05 03:23:18;;;;;;;4.40;3.20;;;14.70;99.90;;;;;;5165488;28;21929;-45
2023/08/05 03:25:48;;;;;;;6.30;3.47;;;14.60;99.90;;;;;;5152674;28;20556;-46
2023/08/05 03:28:19;;;;;;;6.00;3.00;;;14.60;99.90;;;;;;5157442;28;20220;-47
2023/08/05 03:30:50;;;;;;;4.67;3.70;;;14.60;99.90;;;;;;5146811;28;20189;-45
2023/08/05 03:33:21;;;;;;;2.90;2.60;;;14.60;99.90;;;;;;5166656;28;20667;-45
2023/08/05 03:35:51;;;;;;;4.60;2.93;;;14.60;99.90;;;;;;5165227;28;20222;-45
2023/08/05 03:38:22;;;;;;;4.40;4.10;;;14.50;99.90;;;;;;5143079;28;20189;-47
2023/08/05 03:40:52;;;;;;;4.33;2.93;;;14.50;99.90;;;;;;5154037;28;20194;-45
2023/08/05 03:43:23;;;;;;;4.60;3.20;;;14.50;99.90;;;;;;5144689;28;20197;-46
2023/08/05 03:45:54;;;;;;;4.30;3.40;;;14.50;99.90;;;;;;5139426;28;20204;-45
2023/08/05 03:48:24;;;;;;;3.50;3.30;;;14.50;99.90;;;;;;5136660;28;20193;-46
2023/08/05 03:50:55;;;;;;;3.57;3.27;;;14.50;99.90;;;;;;5161736;28;20681;-46
2023/08/05 03:53:26;;;;;;;3.57;3.37;;;14.50;99.90;;;;;;5167136;28;20193;-45
2023/08/05 03:55:57;;;;;;;5.60;3.73;;;14.50;99.90;;;;;;5163942;28;20189;-47
2023/08/05 03:58:28;;;;;;;4.60;3.87;;;14.50;99.90;;;;;;5144932;28;20453;-46
2023/08/05 04:01:00;;;;;;;3.93;3.27;;;14.50;99.90;;;;;;5158406;28;20213;-46
2023/08/05 04:03:31;;;;;;;3.87;3.57;;;14.50;99.90;;;;;;5143595;28;20255;-45
2023/08/05 04:06:01;;;;;;;3.90;3.70;;;14.60;99.90;;;;;;5162425;28;20475;-45
2023/08/05 04:08:32;;;;;;;6.43;2.60;;;14.50;99.90;;;;;;5139647;28;20251;-46
2023/08/05 04:11:05;;;;;;;6.63;3.93;;;14.60;99.90;;;;;;5145591;28;20705;-45
2023/08/05 04:13:38;;;;;;;7.17;3.00;;;14.60;99.90;;;;;;5144260;28;20228;-45
2023/08/05 04:16:09;;;;;;;5.73;3.37;;;14.60;99.90;;;;;;5156646;28;20452;-45
2023/08/05 04:18:42;;;;;;;7.73;3.80;;;14.60;99.90;;;;;;5147337;28;20546;-46
2023/08/05 04:21:13;;;;;;;5.10;3.00;;;14.70;99.90;;;;;;5140476;28;20444;-46
2023/08/05 04:23:46;;;;;;;6.93;3.17;;;14.70;99.90;;;;;;5156138;28;20520;-45
2023/08/05 04:26:17;;;;;;;4.10;3.30;;;14.70;99.90;;;;;;5147733;28;20460;-46
2023/08/05 04:28:48;;;;;;;9.47;3.60;;;14.70;99.90;;;;;;5141778;28;21010;-45
2023/08/05 04:31:19;;;;;;;5.20;3.43;;;14.80;99.90;;;;;;5157610;28;20444;-45
2023/08/05 04:33:50;;;;;;;2.77;2.67;;;14.80;99.90;;;;;;5148018;28;20181;-46
2023/08/05 04:36:23;;;;;;;3.57;3.30;;;14.90;99.90;;;;;;5159803;28;20189;-45
2023/08/05 04:38:54;;;;;;;4.30;3.00;;;15.10;99.90;;;;;;5137092;28;20468;-45
2023/08/05 04:41:25;;;;;;;3.30;3.07;;;15.30;99.90;;;;;;5147205;28;20453;-45
2023/08/05 04:43:58;;;;;;;4.30;2.60;;;15.30;99.90;;;;;;5142443;28;20488;-46
2023/08/05 04:46:29;;;;;;;4.27;3.50;;;15.20;99.90;;;;;;5144529;28;20288;-46
2023/08/05 04:49:00;;;;;;;4.07;3.10;;;15.30;99.90;;;;;;5162209;28;20535;-46
2023/08/05 04:51:31;;;;;;;3.37;2.97;;;15.30;99.90;;;;;;5157029;28;20320;-45
2023/08/05 04:54:02;;;;;;;4.33;3.13;;;15.50;99.90;;;;;;5135484;28;20190;-46
2023/08/05 04:56:34;;;;;;;2.87;2.63;;;15.70;99.90;;;;;;5135544;28;20189;-45
2023/08/05 04:59:05;;;;;;;2.73;2.53;;;16.40;99.90;;;;;;5135995;28;20466;-46
2023/08/05 05:01:36;;;;;;;5.93;3.53;;;17.20;99.90;;;;;;5135783;28;20432;-45
2023/08/05 05:04:06;;;;;;;2.47;2.47;;;18.60;99.90;;;;;;5148482;28;20605;-45
2023/08/05 05:06:37;;;;;;;2.30;2.10;;;20.10;99.90;;;;;;5149570;28;20224;-45
2023/08/05 05:09:08;;;;;;;2.43;2.33;;;21.10;99.90;;;;;;5157052;28;20200;-45
2023/08/05 05:11:39;;;;;;;2.83;2.63;;;22.20;99.90;;;;;;5160984;28;20188;-45
2023/08/05 05:14:10;;;;;;;3.47;3.07;;;23.60;99.90;;;;;;5130451;28;20196;-46
2023/08/05 05:16:41;;;;;;;4.73;2.60;;;23.90;99.90;;;;;;5155365;28;20448;-46
2023/08/05 05:19:12;;;;;;;6.70;2.67;;;24.40;99.60;;;;;;5159882;28;20620;-47
2023/08/05 05:21:43;;;;;;;1.90;1.83;;;25.10;96.50;;;;;;5140085;28;20448;-45
2023/08/05 05:24:15;;;;;;;2.00;1.90;;;25.90;92.90;;;;;;5138263;28;20185;-46
2023/08/05 05:26:45;;;;;;;2.40;2.20;;;26.70;90.30;;;;;;5135730;28;20650;-47
2023/08/05 05:29:19;;;;;;;2.13;2.03;;;27.10;82.70;;;;;;5147796;28;20473;-46
2023/08/05 05:31:50;;;;;;;4.60;2.27;;;26.70;79.50;;;;;;5157136;28;20249;-45
2023/08/05 05:34:21;;;;;;;1.97;1.80;;;26.10;79.40;;;;;;5133807;28;20448;-46
2023/08/05 05:36:52;;;;;;;3.70;2.23;;;26.30;80.20;;;;;;5135255;28;20602;-46
2023/08/05 05:39:23;;;;;;;3.13;2.27;;;26.20;79.00;;;;;;5149758;28;20219;-46
2023/08/05 05:41:55;;;;;;;1.43;1.23;;;26.70;76.80;;;;;;5142754;28;20534;-46
2023/08/05 05:44:29;;;;;;;3.23;1.60;;;27.50;73.30;;;;;;5136279;28;20189;-46
2023/08/05 05:47:00;;;;;;;2.63;1.73;;;28.40;69.50;;;;;;5136539;28;20476;-46
2023/08/05 05:49:31;;;;;;;2.53;1.80;;;29.50;64.90;;;;;;5159122;28;20452;-46
2023/08/05 05:52:02;;;;;;;4.10;1.80;;;30.30;60.00;;;;;;5135923;28;20264;-46
2023/08/05 05:54:35;;;;;;;1.93;1.83;;;30.40;57.10;;;;;;5135400;28;20193;-47
2023/08/05 05:57:07;;;;;;;2.00;1.80;;;31.00;55.20;;;;;;5151789;28;20432;-47
2023/08/05 05:59:39;;;;;;;1.80;1.70;;;31.60;52.90;;;;;;5149815;28;20455;-46
2023/08/05 06:02:09;;;;;;;3.10;1.83;;;32.20;50.70;;;;;;5145787;28;20444;-48
2023/08/05 06:04:43;;;;;;;1.77;1.67;;;32.60;49.10;;;;;;5131243;28;20561;-48
2023/08/05 06:07:14;;;;;;;2.90;2.20;;;32.70;47.80;;;;;;5146007;28;20332;-47
2023/08/05 06:09:45;;;;;;;2.83;1.67;;;33.00;46.40;;;;;;5135120;28;20555;-47
2023/08/05 06:12:18;;;;;;;9.10;2.10;;;32.80;46.50;;;;;;5150183;28;20760;-47
2023/08/05 06:14:49;;;;;;;7.73;1.97;;;33.30;45.90;;;;;;5138681;28;20180;-47
2023/08/05 06:17:20;;;;;;;5.87;1.50;;;33.70;44.40;;;;;;5132080;28;20447;-47
2023/08/05 06:19:50;;;;;;;4.83;1.57;;;34.50;43.00;;;;;;5126272;28;20220;-48
2023/08/05 06:22:21;;;;;;;3.07;1.33;;;34.00;43.20;;;;;;5159200;28;20192;-47
2023/08/05 06:24:52;;;;;;;2.90;1.70;;;33.20;43.70;;;;;;5149954;28;20310;-47
2023/08/05 06:27:22;;;;;;;4.20;1.80;;;32.20;45.10;;;;;;5154874;28;20184;-46
2023/08/05 06:29:53;;;;;;;5.47;1.97;;;31.00;46.40;;;;;;5148504;28;20204;-46
2023/08/05 06:32:24;;;;;;;1.63;1.53;;;30.10;48.60;;;;;;5147300;28;20226;-47
2023/08/05 06:34:54;;;;;;;5.93;1.60;;;28.70;50.90;;;;;;5150351;28;20176;-47
2023/08/05 06:37:25;;;;;;;4.53;1.90;;;26.70;54.40;;;;;;5165872;28;20661;-46
2023/08/05 06:39:55;;;;;;;2.50;2.30;;;25.20;58.20;;;;;;5163491;28;20193;-46
2023/08/05 06:42:26;;;;;;;6.93;2.23;;;24.00;61.40;;;;;;5168274;28;20193;-46
2023/08/05 06:44:57;;;;;;;2.00;1.90;;;23.20;65.60;;;;;;5167700;28;20173;-46
2023/08/05 06:47:31;;;;;;;2.13;1.80;;;22.80;68.40;;;;;;5142020;28;20189;-46
2023/08/05 06:50:06;;;;;;;2.57;2.47;;;22.60;70.90;;;;;;5158744;28;20257;-46
2023/08/05 06:52:37;;;;;;;2.10;1.87;;;22.10;75.80;;;;;;5167249;28;20427;-46
2023/08/05 06:55:08;;;;;;;2.43;2.20;;;22.10;80.50;;;;;;5168005;28;20436;-47
2023/08/05 06:57:39;;;;;;;2.57;2.23;;;22.00;82.30;;;;;;5165532;28;20436;-46
2023/08/05 07:00:11;;;;;;;3.90;2.10;;;21.80;85.00;;;;;;5148422;28;20327;-47
2023/08/05 07:02:42;;;;;;;2.27;2.07;;;21.30;90.10;;;;;;5146336;28;20196;-47
2023/08/05 07:05:13;;;;;;;4.13;2.43;;;20.90;92.90;;;;;;5147684;28;20475;-47
2023/08/05 07:07:44;;;;;;;2.60;2.10;;;20.80;96.50;;;;;;5148100;28;20436;-46
2023/08/05 07:10:15;;;;;;;2.10;2.00;;;20.80;97.10;;;;;;5145381;28;20565;-47
2023/08/05 07:12:46;;;;;;;2.30;2.20;;;20.70;98.20;;;;;;5147522;28;20181;-45
2023/08/05 07:15:17;;;;;;;2.47;2.27;;;20.70;99.70;;;;;;5146309;28;20463;-48
2023/08/05 07:17:47;;;;;;;2.90;2.60;;;20.70;99.80;;;;;;5160446;28;20208;-46
2023/08/05 07:20:21;;;;;;;2.60;2.10;;;20.60;99.90;;;;;;5152063;28;20225;-47
2023/08/05 07:22:52;;;;;;;5.23;2.17;;;20.70;99.90;;;;;;5136350;28;20186;-47
2023/08/05 07:25:22;;;;;;;2.83;1.90;;;20.60;99.90;;;;;;5147628;28;20461;-46
2023/08/05 07:27:53;;;;;;;15.20;2.40;;;20.60;99.90;;;;;;5140697;28;20200;-46
2023/08/05 07:30:24;;;;;;;4.17;2.33;;;20.40;99.90;;;;;;5141402;28;20247;-47
2023/08/05 07:32:55;;;;;;;2.67;2.37;;;20.20;99.90;;;;;;5164109;28;20609;-47
2023/08/05 07:35:29;;;;;;;2.70;1.77;;;20.20;99.90;;;;;;5148786;28;20185;-46
2023/08/05 07:38:09;;;;;;;4.53;2.40;;;20.40;99.90;;;;;;5147492;28;20181;-45
2023/08/05 07:40:40;;;;;;;5.00;3.90;;;20.50;99.90;;;;;;5144472;28;20443;-46
2023/08/05 07:43:15;;;;;;;3.80;2.57;;;20.60;99.90;;;;;;5118823;28;20441;-45
2023/08/05 07:45:45;;;;;;;3.03;2.30;;;20.90;99.90;;;;;;5142850;28;20456;-46
2023/08/05 07:48:16;;;;;;;4.20;3.20;;;20.70;99.90;;;;;;5162039;28;20511;-46
2023/08/05 07:50:47;;;;;;;4.10;2.27;;;20.60;99.90;;;;;;5161469;28;20650;-46
2023/08/05 07:53:20;;;;;;;6.47;2.50;;;20.50;99.90;;;;;;5163434;28;20444;-47
2023/08/05 07:55:53;;;;;;;2.67;2.17;;;20.50;99.90;;;;;;5150543;28;20553;-46
2023/08/05 07:58:25;;;;;;;3.70;2.17;;;20.40;99.90;;;;;;5162957;28;20467;-47
2023/08/05 08:00:56;;;;;;;8.90;2.40;;;20.40;99.90;;;;;;5133043;28;20440;-46
2023/08/05 08:03:29;;;;;;;6.97;2.67;;;20.40;99.90;;;;;;5143193;28;20457;-47
2023/08/05 08:06:00;;;;;;;4.57;2.70;;;20.60;99.90;;;;;;5149396;28;20467;-46
2023/08/05 08:08:30;;;;;;;6.27;2.03;;;20.70;99.90;;;;;;5160834;28;20893;-46
2023/08/05 08:11:01;;;;;;;2.37;2.00;;;21.10;99.90;;;;;;5147067;28;20218;-46
2023/08/05 08:13:32;;;;;;;4.97;2.50;;;21.10;99.90;;;;;;5159059;28;20721;-45
2023/08/05 08:16:03;;;;;;;2.30;2.10;;;21.20;99.90;;;;;;5157240;28;20254;-46
2023/08/05 08:18:33;;;;;;;7.80;2.27;;;21.40;99.90;;;;;;5137027;28;20299;-45
2023/08/05 08:21:06;;;;;;;2.80;2.03;;;21.40;99.90;;;;;;5130594;28;20185;-46
2023/08/05 08:23:37;;;;;;;3.70;2.17;;;21.40;99.90;;;;;;5154381;28;20239;-47
2023/08/05 08:26:08;;;;;;;2.50;2.30;;;21.60;99.90;;;;;;5163090;28;20443;-46
2023/08/05 08:28:39;;;;;;;3.70;2.63;;;21.70;99.90;;;;;;5151980;28;20463;-46
2023/08/05 08:31:09;;;;;;;10.80;2.40;;;22.00;99.90;;;;;;5156056;28;21132;-46
2023/08/05 08:33:40;;;;;;;4.17;2.20;;;22.20;99.90;;;;;;5140328;28;20189;-47
2023/08/05 08:36:11;;;;;;;6.23;2.03;;;22.70;99.90;;;;;;5149319;28;20256;-46
2023/08/05 08:38:41;;;;;;;3.17;2.30;;;22.90;98.80;;;;;;5159904;28;20205;-47
2023/08/05 08:41:12;;;;;;;3.13;1.93;;;23.20;98.70;;;;;;5162071;28;20185;-46
2023/08/05 08:43:43;;;;;;;4.00;1.87;;;23.80;97.80;;;;;;5145351;28;20196;-46
2023/08/05 08:46:16;;;;;;;4.03;2.10;;;24.50;94.20;;;;;;5156994;28;20216;-46
2023/08/05 08:48:51;;;;;;;5.93;2.30;;;25.30;90.80;;;;;;5156133;28;20197;-48
2023/08/05 08:51:22;;;;;;;2.33;2.03;;;25.60;87.30;;;;;;5148732;28;20440;-47
2023/08/05 08:53:54;;;;;;;8.53;2.00;;;25.90;83.50;;;;;;5164874;28;20928;-46
2023/08/05 08:56:24;;;;;;;4.00;1.90;;;25.70;80.90;;;;;;5161424;28;20791;-46
2023/08/05 08:58:55;;;;;;;3.90;1.67;;;25.70;81.00;;;;;;5141451;28;20596;-48
2023/08/05 09:01:26;;;;;;;2.30;2.10;;;25.80;79.30;;;;;;5150354;28;20189;-49
2023/08/05 09:03:59;;;;;;;7.03;2.50;;;25.50;79.60;;;;;;5155644;28;20196;-46
2023/08/05 09:06:29;;;;;;;3.93;2.40;;;25.10;81.20;;;;;;5160313;28;20495;-47
2023/08/05 09:09:00;;;;;;;4.70;1.83;;;24.90;80.60;;;;;;5153786;28;20532;-46
2023/08/05 09:11:31;;;;;;;3.23;2.20;;;24.40;80.60;;;;;;5159790;28;20192;-46
2023/08/05 09:14:03;;;;;;;3.80;2.20;;;24.10;81.00;;;;;;5164812;28;20280;-48
2023/08/05 09:16:55;;;;;;;3.70;1.83;;;23.60;82.20;;;;;;5147297;28;20212;-47
2023/08/05 09:19:27;;;;;;;2.10;1.97;;;23.10;84.60;;;;;;5152659;23;20497;-47
2023/08/05 09:22:02;;;;;;;2.37;2.17;;;22.90;85.80;;;;;;5127256;28;20449;-47
2023/08/05 09:24:34;;;;;;;1.50;1.40;;;22.80;85.40;;;;;;5130856;28;20865;-47
2023/08/05 09:27:05;;;;;;;2.77;1.80;;;22.90;85.00;;;;;;5124501;28;20473;-47
2023/08/05 09:29:36;;;;;;;2.70;1.77;;;23.30;82.40;;;;;;5141725;28;20899;-49
2023/08/05 09:32:07;;;;;;;3.37;1.73;;;23.50;81.50;;;;;;5128855;28;20516;-47
2023/08/05 09:34:39;;;;;;;1.60;1.50;;;23.50;81.60;;;;;;5127708;28;20182;-49
2023/08/05 09:37:13;;;;;;;1.33;1.30;;;23.50;81.70;;;;;;5126278;28;20200;-48
2023/08/05 09:39:50;;;;;;;3.10;2.80;;;22.80;82.00;;;;;;5108233;28;20544;-47
2023/08/05 09:42:24;;;;;;;2.00;1.80;;;22.20;85.60;;;;;;5112506;28;20437;-48
2023/08/05 09:44:58;;;;;;;5.40;1.83;;;21.80;87.90;;;;;;5121570;28;20944;-48
2023/08/05 09:47:31;;;;;;;2.70;1.87;;;21.80;89.10;;;;;;5126737;28;20414;-48
2023/08/05 09:50:04;;;;;;;3.10;1.77;;;21.80;89.00;;;;;;5129149;28;20449;-48
2023/08/05 09:52:37;;;;;;;3.33;2.10;;;22.10;87.90;;;;;;5130358;28;20440;-47
2023/08/05 09:55:16;;;;;;;8.87;2.07;;;22.40;87.00;;;;;;5108538;28;20459;-47
2023/08/05 09:57:47;;;;;;;5.53;2.00;;;22.60;86.50;;;;;;5131810;28;20437;-48
2023/08/05 10:00:18;;;;;;;2.07;1.87;;;22.90;85.10;;;;;;5124777;28;20457;-48
2023/08/05 10:02:49;;;;;;;3.13;1.90;;;23.20;82.70;;;;;;5117504;28;20477;-49
2023/08/05 10:05:24;;;;;;;7.30;1.73;;;23.10;82.60;;;;;;5106874;28;20690;-48
2023/08/05 10:07:58;;;;;;;1.97;1.53;;;22.90;80.80;;;;;;5115465;28;20449;-48
2023/08/05 10:10:31;;;;;;;3.33;1.60;;;23.30;80.90;;;;;;5109211;28;20767;-47
2023/08/05 10:13:14;;;;;;;8.63;3.43;;;23.50;79.90;;;;;;5120435;28;20534;-48
2023/08/05 10:15:49;;;;;;;2.17;2.07;;;23.60;81.00;;;;;;5111689;28;20450;-48
2023/08/05 10:18:21;;;;;;;3.80;1.57;;;24.00;79.60;;;;;;5117514;28;20449;-50
2023/08/05 10:20:52;;;;;;;3.50;2.00;;;24.20;76.70;;;;;;5120048;28;20604;-49
2023/08/05 10:23:26;;;;;;;2.87;1.53;;;24.00;75.60;;;;;;5118948;28;20541;-49
2023/08/05 10:26:02;;;;;;;4.90;1.70;;;23.60;76.30;;;;;;5115181;28;20472;-49
2023/08/05 10:28:38;;;;;;;1.93;1.60;;;23.60;76.50;;;;;;5112566;28;20490;-47
2023/08/05 10:31:36;;;;;;;3.27;1.97;;;23.60;77.70;;;;;;5114676;28;20612;-48
2023/08/05 10:34:11;;;;;;;2.70;1.73;;;23.90;77.90;;;;;;5117128;28;20811;-48
2023/08/05 10:36:43;;;;;;;8.23;1.93;;;23.80;77.00;;;;;;5101983;28;20793;-48
2023/08/05 10:39:36;;;;;;;2.40;1.37;;;23.80;77.90;;;;;;5113117;28;20461;-48
2023/08/05 10:42:28;;;;;;;2.00;1.90;;;23.80;76.00;;;;;;5111911;28;20457;-50
2023/08/05 10:45:00;;;;;;;3.00;1.70;;;23.80;75.60;;;;;;5122568;28;20450;-49
2023/08/05 10:47:31;;;;;;;2.83;1.87;;;23.90;75.30;;;;;;5125876;28;20454;-47
2023/08/05 10:50:03;;;;;;;8.43;1.93;;;23.80;73.60;;;;;;5123956;28;20826;-52
2023/08/05 10:52:36;;;;;;;1.57;1.47;;;23.60;74.10;;;;;;5122898;28;20501;-48
2023/08/05 10:55:13;;;;;;;2.57;1.57;;;23.30;75.00;;;;;;5127486;28;20433;-47
2023/08/05 10:57:45;;;;;;;6.53;1.57;;;23.30;75.00;;;;;;5127660;28;20453;-46
2023/08/05 11:00:20;;;;;;;2.23;2.00;;;23.30;75.30;;;;;;5128212;28;20472;-49
2023/08/05 11:03:43;;;;;;;1.63;1.53;;;23.40;75.10;;;;;;5126327;28;20449;-47
2023/08/05 11:06:15;;;;;;;2.50;1.53;;;23.70;75.00;;;;;;5113204;28;20477;-46
2023/08/05 11:08:45;;;;;;;2.00;1.53;;;24.10;74.50;;;;;;5126700;28;20522;-48
2023/08/05 11:11:16;;;;;;;5.10;2.20;;;24.30;71.90;;;;;;5109006;28;20922;-48
2023/08/05 11:13:48;;;;;;;1.63;1.53;;;24.40;72.90;;;;;;5127513;28;20237;-48
2023/08/05 11:16:18;;;;;;;2.93;1.63;;;24.40;71.70;;;;;;5113156;28;20183;-47
2023/08/05 11:18:57;;;;;;;3.77;2.10;;;24.60;70.20;;;;;;5131021;28;20796;-48
2023/08/05 11:21:27;;;;;;;3.00;2.10;;;24.40;70.90;;;;;;5127711;28;20647;-50
2023/08/05 11:23:59;;;;;;;3.00;2.10;;;24.50;70.80;;;;;;5129379;28;20433;-48
2023/08/05 11:26:30;;;;;;;2.60;2.30;;;24.40;71.60;;;;;;5130782;28;20713;-49
2023/08/05 11:29:01;;;;;;;4.90;2.10;;;24.30;71.70;;;;;;5129899;28;20461;-48
2023/08/05 11:31:31;;;;;;;1.40;1.40;;;24.10;72.60;;;;;;5131759;28;20222;-49
2023/08/05 11:34:02;;;;;;;3.23;2.00;;;23.80;73.50;;;;;;5128557;28;20452;-48
2023/08/05 11:36:32;;;;;;;2.17;1.97;;;23.70;73.80;;;;;;5116583;28;20194;-50
2023/08/05 11:39:03;;;;;;;2.53;1.90;;;23.40;73.40;;;;;;5124135;28;20687;-50
2023/08/05 11:41:34;;;;;;;2.03;1.63;;;23.10;75.10;;;;;;5117929;28;20190;-48
2023/08/05 11:44:05;;;;;;;6.50;1.80;;;23.00;75.10;;;;;;5114094;28;20197;-48
2023/08/05 11:46:36;;;;;;;3.30;1.50;;;23.00;76.00;;;;;;5126454;28;20528;-47
2023/08/05 11:49:11;;;;;;;1.53;1.43;;;22.80;75.80;;;;;;5127746;28;20288;-47
2023/08/05 11:51:50;;;;;;;1.70;1.60;;;22.90;75.80;;;;;;5129165;28;20290;-47
2023/08/05 11:54:34;;;;;;;1.83;1.40;;;23.20;75.00;;;;;;5132170;28;20981;-49
2023/08/05 11:57:21;;;;;;;2.43;1.60;;;23.60;74.10;;;;;;5140848;28;20436;-48
2023/08/05 11:59:53;;;;;;;1.73;1.30;;;23.60;72.70;;;;;;5121261;28;20458;-47
2023/08/05 12:02:24;;;;;;;1.63;1.60;;;23.50;72.70;;;;;;5126771;28;20473;-48
2023/08/05 12:04:58;;;;;;;3.07;1.70;;;23.30;74.00;;;;;;5127047;28;20461;-48
2023/08/05 12:07:29;;;;;;;2.33;2.03;;;23.10;74.70;;;;;;5124813;28;20182;-48
2023/08/05 12:10:12;;;;;;;8.00;1.90;;;23.20;75.00;;;;;;5127047;28;20457;-47
2023/08/05 12:12:49;;;;;;;1.60;1.50;;;23.40;73.60;;;;;;5125973;28;20473;-48
2023/08/05 12:15:27;;;;;;;3.20;1.13;;;23.70;73.80;;;;;;5124057;28;20440;-47
2023/08/05 12:18:03;;;;;;;4.53;1.70;;;23.70;72.30;;;;;;5125725;28;20417;-49
2023/08/05 12:20:36;;;;;;;3.40;2.03;;;23.80;72.60;;;;;;5123035;28;20465;-48
2023/08/05 12:23:07;;;;;;;1.90;1.80;;;23.90;72.20;;;;;;5108209;28;20945;-49
2023/08/05 12:25:38;;;;;;;2.00;1.53;;;23.90;71.60;;;;;;5122339;28;20472;-48
2023/08/05 12:28:08;;;;;;;1.70;1.63;;;23.80;72.00;;;;;;5124761;28;20469;-48
2023/08/05 12:30:39;;;;;;;6.13;1.80;;;23.70;71.80;;;;;;5124705;28;20529;-49
2023/08/05 12:33:12;;;;;;;2.57;2.37;;;23.70;72.00;;;;;;5122277;28;20265;-49
2023/08/05 12:35:42;;;;;;;4.63;1.40;;;23.80;70.90;;;;;;5128181;28;20202;-47
2023/08/05 12:38:14;;;;;;;3.90;2.10;;;23.90;71.30;;;;;;5127061;28;20822;-48
2023/08/05 12:40:45;;;;;;;6.33;2.70;;;23.90;70.20;;;;;;5128022;28;20291;-49
2023/08/05 12:43:15;;;;;;;3.77;2.00;;;23.90;70.90;;;;;;5127688;28;20582;-48
2023/08/05 12:45:46;;;;;;;1.50;1.40;;;24.10;69.80;;;;;;5128093;28;20216;-48
2023/08/05 12:48:16;;;;;;;4.10;1.97;;;24.20;70.30;;;;;;5126669;28;20572;-49
2023/08/05 12:50:50;;;;;;;1.37;1.37;;;24.20;71.30;;;;;;5127059;28;20218;-48
2023/08/05 12:53:21;;;;;;;2.00;1.50;;;24.20;71.70;;;;;;5126920;28;20238;-48
2023/08/05 12:55:52;;;;;;;2.60;1.83;;;24.20;70.30;;;;;;5128020;28;20438;-49
2023/08/05 12:58:22;;;;;;;1.83;1.73;;;24.10;70.20;;;;;;5127479;28;20452;-49
2023/08/05 13:00:53;;;;;;;7.77;1.73;;;23.90;69.60;;;;;;5129399;28;20289;-48
2023/08/05 13:03:23;;;;;;;2.37;2.17;;;23.80;70.20;;;;;;5129316;28;20187;-49
2023/08/05 13:05:54;;;;;;;4.53;1.93;;;23.60;70.40;;;;;;5130991;28;20889;-47
2023/08/05 13:08:25;;;;;;;4.83;1.50;;;23.50;70.40;;;;;;5127663;28;20271;-49
2023/08/05 13:10:55;;;;;;;6.00;1.53;;;23.30;71.00;;;;;;5130968;28;20178;-48